Warren, AR (71671)

10:45 PM CDT on June 02, 2015 (GMT -0500)
RAWS | | Change Station
CLOSE
Current Station
Personal Weather Station
Location: Monticello, AR
Elevation: 183 ft
Nearby Weather Stations
Active Advisory: Flood Warning

Elev 183 ft 33.59 °N, 91.81 °W | Updated 45 minutes ago

Clear
Clear
68 °F
Feels Like 68 °F
N
0
Wind Variable Wind from North
Gusts 0.0 mph

Today
High -- | Low -- °F
--% Chance of Precip.
Yesterday
High -- | Low -- °F
Precip. -- in
5:58 AM 8:13 PM
Full, 100% visible
Pressure 29.99 in
Visibility 10.0 miles
Clouds Clear
Dew Point 67 °F
Humidity 96%
Rainfall in
Snow Depth Not available.
UV 0 out of 12
Pollen 7.10 out of 12
Air Quality Not available.
Flu Activity No Activity
METAR KLLQ 030253Z AUTO 00000KT 10SM CLR 20/18 A2999 RMK AO2 SLP154 T02000183 53007 $

More Conditions Fewer Conditions

Pressure 29.99 in
Visibility 10.0 miles
Clouds Clear
Dew Point 67 °F
Humidity 96%
Rainfall in
Snow Depth Not available.
UV 0 out of 12
Pollen 7.10 out of 12
Air Quality Not available.
Flu Activity No Activity
METAR KLLQ 030253Z AUTO 00000KT 10SM CLR 20/18 A2999 RMK AO2 SLP154 T02000183 53007 $

More Conditions Fewer Conditions

10-Day Weather Forecast

×

Almanac

Astronomy

Jun. 02, 2015 Rise Set
Actual Time
Civil Twilight
Nautical Twilight
Astronomical Twilight
Moon
Length of Visible Light
Length of Day
Tomorrow will be .
, % of the Moon is Illuminated

Today's Extremes

State Highs State Lows

Community

WunderPhotos

Upload Photos

1,826,138 photos uploaded!

WunderBlogs® & News

Nearby

Air Quality

  Air Quality AQ Index Pollutant
Not available.

Snow Depth

Station Depth Elevation

Earthquake Activity

City Distance Mag. Time & Date
Minimum magnitude displayed is 2.5.

Coastal Water Temperatures

Place Temperature

Stations

Nearby Weather Stations

Station Location Temp. Windchill Dew Point Humidity Wind Precip. Elev Updated Type
                   
Flood Warning
Statement as of 8:05 PM CDT on June 02, 2015

The Flood Warning continues for
the Ouachita River at Thatcher l&d.
* Until further notice... or until the warning is cancelled.
* At 7:00 am Tuesday the stage was 85.2 feet.
* Minor flooding is occurring and minor flooding is forecast.
* Flood stage is 79.0 feet.
* Forecast... the river will continue rising to near 86.3 feet by
Saturday morning.
* Impact... at 85.0 feet... there may be some County roads along the
river flooded, requiring lengthy detours. River is high and swift,
boaters should be very cautious. Access to many oil and gas rigs
will be by boat only. Levee gates should be closed.


             Fld observed forecast 7 am
location stg stg day time Wed Thu Fri Sat sun

Ouachita River
Thatcher l 79 85.2 Tue 07 am 85.5 85.8 86.1 86.3 86.2




Lat... Lon 3311 9223 3323 9236 3329 9261 3338 9247
3333 9226 3322 9212